Time;durP1;ratioP1;P1;durP2;ratioP2;P2;SDS_P1;SDS_P2;PMS_P1;PMS_P2;Temp;Humidity;BMP_temperature;BMP_pressure;BME280_temperature;BME280_humidity;BME280_pressure;Samples;Min_cycle;Max_cycle;Signal;HPM_P1;HPM_P2
2022/01/06 00:01:51;;;;;;;30.33;12.10;;;-2.20;99.90;;;;;;5089326;28;20071;-75
2022/01/06 00:04:19;;;;;;;29.92;12.80;;;-2.20;99.90;;;;;;5090023;28;20423;-72
2022/01/06 00:06:46;;;;;;;25.38;11.15;;;-2.20;99.90;;;;;;5090230;28;20036;-67
2022/01/06 00:09:17;;;;;;;26.25;10.52;;;-2.20;99.90;;;;;;5090946;28;20410;-71
2022/01/06 00:11:45;;;;;;;29.17;11.65;;;-2.20;99.90;;;;;;5094251;28;20040;-70
2022/01/06 00:14:24;;;;;;;39.97;12.43;;;-2.20;99.90;;;;;;5091077;28;20040;-70
2022/01/06 00:17:18;;;;;;;34.58;12.00;;;-2.20;99.90;;;;;;5090669;28;20055;-75
2022/01/06 00:25:18;;;;;;;29.95;12.32;;;-2.20;99.90;;;;;;5102406;28;20226;-66
2022/01/06 00:27:46;;;;;;;30.17;12.27;;;-2.20;99.90;;;;;;5109024;28;20050;-68
2022/01/06 00:30:14;;;;;;;26.35;11.52;;;-2.20;99.90;;;;;;5110345;28;20525;-69
2022/01/06 00:32:45;;;;;;;36.70;13.20;;;-2.20;99.90;;;;;;5110218;28;20454;-68
2022/01/06 00:35:13;;;;;;;27.52;12.15;;;-2.20;99.90;;;;;;5109705;28;20044;-66
2022/01/06 00:37:41;;;;;;;44.58;12.35;;;-2.20;99.90;;;;;;5109920;28;20148;-66
2022/01/06 00:40:09;;;;;;;39.30;15.88;;;-2.20;99.90;;;;;;5109789;28;20048;-70
2022/01/06 00:42:38;;;;;;;30.00;13.15;;;-2.20;99.90;;;;;;5091902;28;20043;-70
2022/01/06 00:45:07;;;;;;;35.55;12.80;;;-2.30;99.90;;;;;;5108096;28;20046;-71
2022/01/06 00:47:34;;;;;;;31.52;11.43;;;-2.30;99.90;;;;;;5109694;28;20044;-68
2022/01/06 00:50:03;;;;;;;29.17;12.18;;;-2.30;99.90;;;;;;5109656;28;20043;-68
2022/01/06 00:52:31;;;;;;;35.17;13.25;;;-2.30;99.90;;;;;;5109717;28;20054;-68
2022/01/06 00:54:58;;;;;;;27.15;12.23;;;-2.40;99.90;;;;;;5109241;28;20040;-68
2022/01/06 00:57:26;;;;;;;33.65;13.05;;;-2.40;99.90;;;;;;5108231;28;20130;-66
2022/01/06 00:59:54;;;;;;;35.25;11.45;;;-2.40;99.90;;;;;;5109467;28;20044;-66
2022/01/06 01:02:22;;;;;;;38.95;14.52;;;-2.40;99.90;;;;;;5107842;28;20043;-68
2022/01/06 01:04:49;;;;;;;33.95;12.55;;;-2.40;99.90;;;;;;5105548;28;20044;-68
2022/01/06 01:07:17;;;;;;;36.75;13.70;;;-2.40;99.90;;;;;;5107333;28;20043;-67
2022/01/06 01:09:45;;;;;;;35.92;12.60;;;-2.40;99.90;;;;;;5109430;28;20039;-68
2022/01/06 01:12:13;;;;;;;30.80;12.35;;;-2.40;99.90;;;;;;5109317;28;20047;-65
2022/01/06 01:14:58;;;;;;;33.37;12.37;;;-2.40;99.90;;;;;;5107814;28;20110;-66
2022/01/06 01:17:27;;;;;;;25.10;11.90;;;-2.40;99.90;;;;;;5109312;28;20288;-65
2022/01/06 01:19:54;;;;;;;31.77;12.45;;;-2.30;99.90;;;;;;5091400;28;20040;-65
2022/01/06 01:22:22;;;;;;;33.50;14.55;;;-2.30;99.90;;;;;;5091200;28;20386;-66
2022/01/06 01:24:50;;;;;;;35.53;13.73;;;-2.30;99.90;;;;;;5109030;28;20410;-65
2022/01/06 01:27:21;;;;;;;25.80;12.73;;;-2.30;99.90;;;;;;5109008;28;20042;-65
2022/01/06 01:30:04;;;;;;;36.97;13.45;;;-2.20;99.90;;;;;;5109355;28;20047;-65
2022/01/06 01:32:35;;;;;;;33.00;13.35;;;-2.20;99.90;;;;;;5108043;28;20043;-65
2022/01/06 01:35:07;;;;;;;40.38;12.50;;;-2.20;99.90;;;;;;5108554;28;20478;-67
2022/01/06 01:37:39;;;;;;;33.50;14.70;;;-2.20;99.90;;;;;;5091049;28;20047;-66
2022/01/06 01:40:08;;;;;;;36.00;13.35;;;-2.10;99.90;;;;;;5107805;28;20394;-65
2022/01/06 01:42:36;;;;;;;;;;;-2.00;99.90;;;;;;5109482;28;20047;-65
2022/01/06 01:45:06;;;;;;;35.78;11.98;;;-2.00;99.90;;;;;;5108641;28;19920;-65
2022/01/06 01:47:45;;;;;;;27.30;11.27;;;-1.90;99.90;;;;;;5108925;28;20070;-66
2022/01/06 01:50:17;;;;;;;32.20;12.33;;;-1.80;99.90;;;;;;5107677;28;20036;-65
2022/01/06 01:52:50;;;;;;;31.75;11.60;;;-1.80;99.90;;;;;;5107884;28;20507;-66
2022/01/06 01:55:24;;;;;;;30.17;12.35;;;-1.70;99.90;;;;;;5095908;28;20047;-65
2022/01/06 01:57:52;;;;;;;27.48;12.13;;;-1.70;99.90;;;;;;5088157;28;20048;-70
2022/01/06 02:00:26;;;;;;;39.67;12.35;;;-1.60;99.90;;;;;;5088910;28;20048;-73
2022/01/06 02:02:54;;;;;;;31.73;11.75;;;-1.60;99.90;;;;;;5089130;28;20040;-66
2022/01/06 02:05:27;;;;;;;33.35;11.98;;;-1.50;99.90;;;;;;5089079;28;20051;-67
2022/01/06 02:08:00;;;;;;;35.58;13.52;;;-1.50;99.90;;;;;;5089509;28;20048;-68
2022/01/06 02:10:29;;;;;;;35.60;12.13;;;-1.40;99.90;;;;;;5088143;28;20044;-68
2022/01/06 02:13:00;;;;;;;29.38;11.43;;;-1.30;99.90;;;;;;5088199;28;20145;-67
2022/01/06 02:15:28;;;;;;;39.92;12.68;;;-1.30;99.90;;;;;;5087680;28;20471;-66
2022/01/06 02:17:56;;;;;;;30.92;11.90;;;-1.30;99.90;;;;;;5087100;28;20395;-65
2022/01/06 02:20:24;;;;;;;30.90;11.98;;;-1.20;99.90;;;;;;5087197;28;20052;-65
2022/01/06 02:22:52;;;;;;;33.50;12.20;;;-1.20;99.90;;;;;;5087019;28;20052;-66
2022/01/06 02:25:31;;;;;;;23.00;9.95;;;-1.10;99.90;;;;;;5086475;28;20059;-66
2022/01/06 02:28:02;;;;;;;30.65;11.73;;;-1.10;99.90;;;;;;5086983;28;20052;-68
2022/01/06 02:30:32;;;;;;;29.23;10.88;;;-1.10;99.90;;;;;;5084596;28;20044;-65
2022/01/06 02:33:03;;;;;;;27.25;12.25;;;-1.00;99.90;;;;;;5089133;28;20052;-66
2022/01/06 02:35:31;;;;;;;23.83;10.90;;;-1.00;99.90;;;;;;5099603;28;20047;-66
2022/01/06 02:37:59;;;;;;;33.58;12.95;;;-1.00;99.90;;;;;;5096299;28;20304;-65
2022/01/06 02:40:27;;;;;;;33.50;11.70;;;-0.90;99.90;;;;;;5095319;28;20046;-66
2022/01/06 02:42:58;;;;;;;33.13;11.30;;;-0.90;99.90;;;;;;5093864;28;20047;-65
2022/01/06 02:45:28;;;;;;;35.75;12.60;;;-0.90;99.90;;;;;;5092108;28;20396;-65
2022/01/06 02:47:57;;;;;;;28.63;12.07;;;-0.90;99.90;;;;;;5094761;28;20044;-66
2022/01/06 02:50:25;;;;;;;37.13;12.40;;;-0.80;99.90;;;;;;5095047;28;20055;-65
2022/01/06 02:52:53;;;;;;;28.23;11.55;;;-0.80;99.90;;;;;;5094880;28;20044;-65
2022/01/06 02:55:21;;;;;;;32.17;11.80;;;-0.80;99.90;;;;;;5093465;28;20047;-65
2022/01/06 02:57:48;;;;;;;42.28;12.13;;;-0.70;99.90;;;;;;5093195;28;20055;-65
2022/01/06 03:00:18;;;;;;;35.28;12.05;;;-0.70;99.90;;;;;;5094663;28;20052;-66
2022/01/06 03:02:46;;;;;;;34.50;12.13;;;-0.70;99.90;;;;;;5094732;28;20044;-65
2022/01/06 03:05:17;;;;;;;24.67;10.90;;;-0.70;99.90;;;;;;5094377;28;20468;-67
2022/01/06 03:07:45;;;;;;;;;;;-0.70;99.90;;;;;;5094882;28;20293;-65
2022/01/06 03:10:16;;;;;;;29.80;10.68;;;-0.70;99.90;;;;;;5076490;28;19924;-65
2022/01/06 03:12:45;;;;;;;34.22;11.98;;;-0.70;99.90;;;;;;5094238;28;20048;-65
2022/01/06 03:15:18;;;;;;;37.83;12.27;;;-0.60;99.90;;;;;;5094597;28;20044;-65
2022/01/06 03:17:51;;;;;;;29.25;11.73;;;-0.60;99.90;;;;;;5094399;28;20040;-65
2022/01/06 03:20:21;;;;;;;38.83;12.77;;;-0.60;99.90;;;;;;5094384;28;20040;-65
2022/01/06 03:22:49;;;;;;;27.70;12.02;;;-0.60;99.90;;;;;;5094378;28;20040;-65
2022/01/06 03:25:17;;;;;;;31.40;10.68;;;-0.60;99.90;;;;;;5094308;28;20040;-67
2022/01/06 03:27:45;;;;;;;29.75;11.68;;;-0.50;99.90;;;;;;5094232;28;20051;-66
2022/01/06 03:30:16;;;;;;;30.60;9.85;;;-0.50;99.90;;;;;;5094203;28;20055;-65
2022/01/06 03:32:44;;;;;;;28.00;11.75;;;-0.50;99.90;;;;;;5094337;28;20055;-66
2022/01/06 03:35:14;;;;;;;25.98;11.05;;;-0.50;99.90;;;;;;5094097;28;20052;-65
2022/01/06 03:37:42;;;;;;;29.52;9.43;;;-0.40;99.90;;;;;;5094208;28;20047;-66
2022/01/06 03:40:11;;;;;;;25.13;10.32;;;-0.40;99.90;;;;;;5092760;28;20052;-66
2022/01/06 03:42:39;;;;;;;26.38;10.32;;;-0.40;99.90;;;;;;5094654;28;20036;-67
2022/01/06 03:45:10;;;;;;;26.95;10.98;;;-0.50;99.90;;;;;;5094123;28;20051;-67
2022/01/06 03:47:37;;;;;;;28.48;9.80;;;-0.40;99.90;;;;;;5095690;28;20048;-65
2022/01/06 03:50:06;;;;;;;26.10;9.80;;;-0.40;99.90;;;;;;5094577;28;20047;-66
2022/01/06 03:52:34;;;;;;;27.23;9.88;;;-0.40;99.90;;;;;;5093499;28;20513;-67
2022/01/06 03:55:05;;;;;;;23.67;9.48;;;-0.40;99.90;;;;;;5093819;28;20387;-66
2022/01/06 03:57:34;;;;;;;23.05;9.50;;;-0.40;99.90;;;;;;5093627;28;20044;-65
2022/01/06 04:00:08;;;;;;;35.10;11.45;;;-0.40;99.90;;;;;;5093359;28;20052;-65
2022/01/06 04:02:39;;;;;;;32.40;10.15;;;-0.40;99.90;;;;;;5093578;28;20044;-66
2022/01/06 04:05:08;;;;;;;28.80;9.95;;;-0.40;99.90;;;;;;5093368;28;20044;-65
2022/01/06 04:07:37;;;;;;;21.58;9.82;;;-0.40;99.90;;;;;;5092242;28;20055;-65
2022/01/06 04:10:06;;;;;;;25.63;10.05;;;-0.40;99.90;;;;;;5093489;28;20051;-65
2022/01/06 04:12:35;;;;;;;29.42;10.02;;;-0.40;99.90;;;;;;5092099;28;20040;-66
2022/01/06 04:15:08;;;;;;;26.65;10.95;;;-0.40;99.90;;;;;;5093301;28;20051;-65
2022/01/06 04:17:36;;;;;;;23.98;9.32;;;-0.30;99.90;;;;;;5093383;28;20052;-66
2022/01/06 04:20:07;;;;;;;30.77;9.25;;;-0.30;99.90;;;;;;5093245;28;20044;-66
2022/01/06 04:22:35;;;;;;;20.73;8.82;;;-0.30;99.90;;;;;;5091912;28;20048;-65
2022/01/06 04:25:04;;;;;;;24.15;8.80;;;-0.30;99.90;;;;;;5093054;28;20044;-65
2022/01/06 04:27:32;;;;;;;24.13;9.95;;;-0.20;99.90;;;;;;5091670;28;20430;-65
2022/01/06 04:30:01;;;;;;;23.45;9.57;;;-0.20;99.90;;;;;;5075093;28;20513;-65
2022/01/06 04:32:28;;;;;;;23.40;9.60;;;-0.30;99.90;;;;;;5091801;28;20052;-65
2022/01/06 04:34:58;;;;;;;28.92;8.38;;;-0.20;99.90;;;;;;5093051;28;20372;-65
2022/01/06 04:37:27;;;;;;;24.90;9.20;;;-0.20;99.90;;;;;;5092949;28;20043;-65
2022/01/06 04:39:55;;;;;;;30.88;9.77;;;-0.20;99.90;;;;;;5093044;28;20052;-66
2022/01/06 04:42:23;;;;;;;23.25;9.15;;;-0.20;99.90;;;;;;5093814;28;20051;-65
2022/01/06 04:44:50;;;;;;;29.63;9.05;;;-0.50;99.90;;;;;;5095460;28;20482;-66
2022/01/06 04:47:18;;;;;;;22.90;8.88;;;-0.20;99.90;;;;;;5094315;28;20051;-66
2022/01/06 04:49:45;;;;;;;19.63;7.93;;;-0.10;99.90;;;;;;5092614;28;20051;-65
2022/01/06 04:52:13;;;;;;;17.70;8.20;;;-0.10;99.90;;;;;;5091156;28;20032;-66
2022/01/06 04:54:41;;;;;;;22.52;8.85;;;-0.10;99.90;;;;;;5092179;28;20521;-65
2022/01/06 04:57:09;;;;;;;19.50;8.02;;;-0.10;99.90;;;;;;5092370;28;20387;-66
2022/01/06 04:59:37;;;;;;;22.38;8.38;;;-0.10;99.90;;;;;;5091105;28;20059;-66
2022/01/06 05:02:05;;;;;;;21.15;8.65;;;0.00;99.90;;;;;;5091260;28;20093;-71
2022/01/06 05:04:32;;;;;;;23.40;8.15;;;-0.10;99.90;;;;;;5092322;28;20047;-72
2022/01/06 05:07:01;;;;;;;19.95;7.75;;;-0.10;99.90;;;;;;5091089;28;20055;-67
2022/01/06 05:09:28;;;;;;;24.67;8.02;;;-0.10;99.90;;;;;;5092198;28;20050;-68
2022/01/06 05:11:56;;;;;;;32.22;9.02;;;-0.10;99.90;;;;;;5092274;28;20126;-71
2022/01/06 05:14:24;;;;;;;27.50;8.63;;;-0.10;99.90;;;;;;5092253;28;20058;-67
2022/01/06 05:16:51;;;;;;;20.13;8.27;;;-0.10;99.90;;;;;;5092135;28;20044;-67
2022/01/06 05:19:19;;;;;;;25.17;7.95;;;0.00;99.90;;;;;;5092050;28;20048;-69
2022/01/06 05:21:46;;;;;;;27.92;8.15;;;0.00;99.90;;;;;;5092106;28;20048;-72
2022/01/06 05:24:22;;;;;;;34.42;8.93;;;0.00;99.90;;;;;;5092205;28;20391;-71
2022/01/06 05:26:51;;;;;;;23.15;9.52;;;0.00;99.90;;;;;;5091848;28;20051;-68
2022/01/06 05:29:18;;;;;;;24.80;8.70;;;0.00;99.90;;;;;;5090640;28;20051;-73
2022/01/06 05:31:46;;;;;;;25.70;7.47;;;0.00;99.90;;;;;;5091986;28;20040;-73
2022/01/06 05:34:13;;;;;;;19.23;7.72;;;0.00;99.90;;;;;;5091881;28;20052;-70
2022/01/06 05:36:41;;;;;;;16.08;6.43;;;0.00;99.90;;;;;;5091878;28;20399;-69
2022/01/06 05:39:09;;;;;;;29.70;8.38;;;0.00;99.90;;;;;;5091800;28;20509;-66
2022/01/06 05:41:37;;;;;;;16.95;7.57;;;0.00;99.90;;;;;;5091827;28;20044;-66
2022/01/06 05:44:05;;;;;;;19.48;6.95;;;-0.10;99.90;;;;;;5091740;28;20044;-66
2022/01/06 05:46:32;;;;;;;22.83;8.02;;;0.00;99.90;;;;;;5091686;28;20048;-65
2022/01/06 05:49:00;;;;;;;15.90;7.30;;;0.00;99.90;;;;;;5068747;28;20496;-66
2022/01/06 05:51:28;;;;;;;16.67;6.78;;;0.00;99.90;;;;;;5068411;28;20060;-65
2022/01/06 05:53:56;;;;;;;17.80;7.07;;;0.00;99.90;;;;;;5068098;28;20047;-65
2022/01/06 05:56:23;;;;;;;15.90;6.65;;;0.00;99.90;;;;;;5068144;28;20055;-65
2022/01/06 05:58:51;;;;;;;25.08;8.02;;;0.00;99.90;;;;;;5083176;28;20040;-66
2022/01/06 06:01:18;;;;;;;16.55;6.30;;;0.10;99.90;;;;;;5087235;28;20056;-66
2022/01/06 06:03:46;;;;;;;19.92;6.85;;;0.10;99.90;;;;;;5063880;28;20431;-65
2022/01/06 06:06:14;;;;;;;18.35;6.25;;;0.10;99.90;;;;;;5065663;28;20056;-66
2022/01/06 06:08:41;;;;;;;18.65;6.50;;;0.10;99.90;;;;;;5082629;28;20040;-66
2022/01/06 06:11:09;;;;;;;16.23;6.68;;;0.10;99.90;;;;;;5089356;28;20056;-66
2022/01/06 06:13:37;;;;;;;13.38;5.80;;;0.10;99.90;;;;;;5087876;28;20044;-65
2022/01/06 06:16:05;;;;;;;24.40;8.13;;;0.10;99.90;;;;;;5089117;28;20044;-67
2022/01/06 06:18:33;;;;;;;22.13;7.10;;;0.10;99.90;;;;;;5078251;28;20059;-66
2022/01/06 06:21:00;;;;;;;18.58;6.82;;;0.20;99.90;;;;;;5068374;28;20036;-65
2022/01/06 06:23:28;;;;;;;15.65;7.22;;;0.20;99.90;;;;;;5085919;28;20056;-66
2022/01/06 06:25:56;;;;;;;17.77;7.10;;;0.20;99.90;;;;;;5091113;28;20486;-67
2022/01/06 06:28:24;;;;;;;16.27;6.68;;;0.20;99.90;;;;;;5090645;28;20067;-71
2022/01/06 06:30:53;;;;;;;19.98;6.88;;;0.20;99.90;;;;;;5091164;28;20044;-69
2022/01/06 06:33:20;;;;;;;15.73;6.75;;;0.20;99.90;;;;;;5086058;28;20041;-68
2022/01/06 06:35:48;;;;;;;17.00;6.82;;;0.30;99.90;;;;;;5071975;28;20055;-66
2022/01/06 06:38:15;;;;;;;13.48;5.72;;;0.20;99.90;;;;;;5081468;28;20503;-68
2022/01/06 06:40:43;;;;;;;19.13;5.22;;;0.20;99.90;;;;;;5092018;28;20051;-68
2022/01/06 06:43:12;;;;;;;18.40;4.95;;;0.30;99.90;;;;;;5091810;28;20048;-70
2022/01/06 06:45:41;;;;;;;13.98;4.43;;;0.40;99.90;;;;;;5092067;28;20040;-71
2022/01/06 06:48:10;;;;;;;9.60;4.20;;;0.40;99.90;;;;;;5085557;28;20045;-69
2022/01/06 06:50:37;;;;;;;17.75;5.50;;;0.50;99.90;;;;;;5071494;28;20052;-72
2022/01/06 06:53:07;;;;;;;9.50;3.75;;;0.50;99.90;;;;;;5080707;28;20505;-67
2022/01/06 06:55:35;;;;;;;14.75;4.68;;;0.60;99.90;;;;;;5091746;28;20044;-66
2022/01/06 06:58:03;;;;;;;11.85;3.92;;;0.60;99.90;;;;;;5091517;28;20414;-67
2022/01/06 07:00:31;;;;;;;14.23;4.13;;;0.60;99.90;;;;;;5091547;28;20395;-65
2022/01/06 07:02:58;;;;;;;17.27;4.85;;;0.70;99.90;;;;;;5086605;28;20063;-66
2022/01/06 07:05:27;;;;;;;10.63;3.42;;;0.60;99.90;;;;;;5071261;28;20431;-66
2022/01/06 07:07:55;;;;;;;8.05;3.00;;;0.60;99.90;;;;;;5078029;28;20044;-66
2022/01/06 07:10:23;;;;;;;12.40;5.05;;;0.60;99.90;;;;;;5088566;28;20067;-64
2022/01/06 07:12:50;;;;;;;16.48;4.72;;;0.60;99.90;;;;;;5087150;28;20044;-65
2022/01/06 07:15:19;;;;;;;13.98;4.85;;;0.60;99.90;;;;;;5087217;28;20044;-66
2022/01/06 07:17:47;;;;;;;22.50;5.93;;;0.50;99.90;;;;;;5087179;28;20036;-67
2022/01/06 07:20:15;;;;;;;14.85;4.32;;;0.40;99.90;;;;;;5071794;28;20041;-63
2022/01/06 07:22:42;;;;;;;13.93;4.20;;;0.40;99.90;;;;;;5082736;28;20525;-65
2022/01/06 07:25:12;;;;;;;11.80;4.93;;;0.30;99.90;;;;;;5091945;28;20043;-65
2022/01/06 07:27:40;;;;;;;15.38;4.07;;;0.30;99.90;;;;;;5090766;28;20051;-65
2022/01/06 07:30:08;;;;;;;18.00;5.15;;;0.20;99.90;;;;;;5091225;28;20055;-64
2022/01/06 07:32:47;;;;;;;15.10;4.95;;;0.20;99.90;;;;;;5070056;28;20044;-71
2022/01/06 07:35:17;;;;;;;9.05;3.80;;;0.20;99.90;;;;;;5067656;28;20044;-69
2022/01/06 07:37:46;;;;;;;12.80;4.70;;;0.10;99.90;;;;;;5071305;28;20518;-71
2022/01/06 07:40:16;;;;;;;15.40;4.63;;;0.10;99.90;;;;;;5076681;28;20044;-74
2022/01/06 07:42:44;;;;;;;11.88;4.80;;;0.00;99.90;;;;;;5086323;28;20036;-71
2022/01/06 07:45:12;;;;;;;17.90;5.03;;;-0.10;99.90;;;;;;5086802;28;20047;-71
2022/01/06 07:47:55;;;;;;;9.50;4.78;;;-0.10;99.90;;;;;;5068795;28;20045;-68
2022/01/06 07:50:25;;;;;;;11.25;4.75;;;-0.20;99.90;;;;;;5070552;28;20064;-65
2022/01/06 07:52:53;;;;;;;9.82;4.65;;;-0.20;99.90;;;;;;5072341;28;20059;-66
2022/01/06 07:55:21;;;;;;;14.40;4.28;;;-0.30;99.90;;;;;;5090356;28;20059;-66
2022/01/06 07:57:50;;;;;;;13.25;4.75;;;-0.30;99.90;;;;;;5088075;28;20059;-65
2022/01/06 08:00:19;;;;;;;13.07;4.97;;;-0.30;99.90;;;;;;5090284;28;20052;-66
2022/01/06 08:02:47;;;;;;;12.90;4.63;;;-0.20;99.90;;;;;;5087290;28;20044;-65
2022/01/06 08:05:16;;;;;;;15.63;4.75;;;-0.20;99.90;;;;;;5068579;28;20059;-66
2022/01/06 08:07:43;;;;;;;13.35;4.68;;;-0.20;99.90;;;;;;5071599;28;20052;-66
2022/01/06 08:10:11;;;;;;;15.25;6.20;;;-0.10;99.90;;;;;;5086923;28;20044;-72
2022/01/06 08:12:40;;;;;;;20.60;5.67;;;-0.10;99.90;;;;;;5089224;28;20048;-73
2022/01/06 08:15:08;;;;;;;14.32;5.18;;;0.00;99.90;;;;;;5090502;28;20044;-72
2022/01/06 08:17:36;;;;;;;21.80;6.60;;;0.00;99.90;;;;;;5090198;28;20048;-67
2022/01/06 08:20:05;;;;;;;17.80;6.85;;;0.00;99.90;;;;;;5088789;28;20040;-72
2022/01/06 08:22:33;;;;;;;21.63;6.72;;;0.00;99.90;;;;;;5089744;28;20043;-72
2022/01/06 08:25:02;;;;;;;16.67;4.55;;;0.00;99.90;;;;;;5088827;28;20388;-66
2022/01/06 08:27:29;;;;;;;19.98;5.30;;;0.00;99.90;;;;;;5089923;28;20059;-70
2022/01/06 08:29:57;;;;;;;16.52;4.68;;;0.00;99.90;;;;;;5088826;28;20043;-65
2022/01/06 08:32:25;;;;;;;12.18;3.70;;;0.00;99.90;;;;;;5088156;28;20411;-70
2022/01/06 08:34:52;;;;;;;15.15;3.90;;;0.00;99.90;;;;;;5088514;28;20059;-66
2022/01/06 08:37:20;;;;;;;14.63;4.00;;;0.10;99.90;;;;;;5089694;28;20044;-72
2022/01/06 08:39:47;;;;;;;13.82;3.55;;;0.10;99.90;;;;;;5089716;28;20048;-68
2022/01/06 08:42:15;;;;;;;12.07;3.15;;;0.10;99.90;;;;;;5089599;28;20044;-71
2022/01/06 08:44:43;;;;;;;11.63;3.35;;;0.20;99.90;;;;;;5089697;28;20391;-71
2022/01/06 08:47:10;;;;;;;8.23;3.28;;;0.20;99.90;;;;;;5089373;28;20399;-68
2022/01/06 08:49:40;;;;;;;9.95;3.47;;;0.20;99.90;;;;;;5079706;28;20395;-74
2022/01/06 08:52:09;;;;;;;9.10;3.08;;;0.30;99.90;;;;;;5070855;28;20063;-72
2022/01/06 08:54:36;;;;;;;9.77;3.63;;;0.40;99.90;;;;;;5089483;28;20044;-73
2022/01/06 08:57:04;;;;;;;8.73;2.55;;;0.40;99.90;;;;;;5089506;28;20483;-71
2022/01/06 08:59:32;;;;;;;6.50;2.63;;;0.50;99.90;;;;;;5088892;28;20047;-68
2022/01/06 09:02:00;;;;;;;10.15;2.70;;;0.60;99.90;;;;;;5087687;28;20055;-74
2022/01/06 09:04:27;;;;;;;13.93;3.20;;;0.60;99.90;;;;;;5081516;28;20048;-73
2022/01/06 09:06:55;;;;;;;5.30;2.55;;;0.60;99.90;;;;;;5067548;28;20045;-69
2022/01/06 09:09:23;;;;;;;13.32;2.80;;;0.70;99.90;;;;;;5087267;28;20067;-71
2022/01/06 09:11:51;;;;;;;8.15;2.83;;;0.70;99.90;;;;;;5089289;28;20051;-73
2022/01/06 09:14:19;;;;;;;9.68;2.50;;;0.80;99.90;;;;;;5088640;28;20415;-71
2022/01/06 09:16:46;;;;;;;7.97;2.45;;;0.80;99.90;;;;;;5088999;28;20055;-72
2022/01/06 09:19:14;;;;;;;11.50;2.55;;;0.80;99.90;;;;;;5066948;28;20045;-72
2022/01/06 09:21:43;;;;;;;6.78;2.60;;;0.90;99.90;;;;;;5084236;28;20056;-68
2022/01/06 09:24:11;;;;;;;7.22;2.10;;;1.00;99.90;;;;;;5087305;28;20044;-70
2022/01/06 09:26:39;;;;;;;11.10;3.38;;;1.00;99.90;;;;;;5089158;28;20052;-71
2022/01/06 09:29:08;;;;;;;11.43;2.03;;;1.10;99.90;;;;;;5087263;28;20506;-69
2022/01/06 09:31:36;;;;;;;5.20;1.75;;;1.10;99.90;;;;;;5088985;28;20055;-72
2022/01/06 09:34:09;;;;;;;9.57;1.80;;;1.20;99.90;;;;;;5085957;28;20431;-73
2022/01/06 09:36:39;;;;;;;6.90;1.83;;;1.30;99.90;;;;;;5068435;28;20055;-74
2022/01/06 09:39:09;;;;;;;4.82;1.52;;;1.40;99.90;;;;;;5084525;28;20051;-70
2022/01/06 09:41:37;;;;;;;;;;;1.50;99.90;;;;;;5088808;28;20059;-69
2022/01/06 09:44:05;;;;;;;7.40;1.42;;;1.50;99.90;;;;;;5087270;28;19920;-70
2022/01/06 09:46:55;;;;;;;6.55;2.60;;;1.60;99.90;;;;;;5089284;28;20043;-74
2022/01/06 09:49:24;;;;;;;6.53;1.95;;;1.70;99.90;;;;;;5089079;28;20044;-73
2022/01/06 09:51:51;;;;;;;5.38;1.80;;;1.70;99.90;;;;;;5091219;28;20040;-69
2022/01/06 09:54:19;;;;;;;8.98;1.48;;;1.80;99.90;;;;;;5090131;28;20380;-69
2022/01/06 09:56:47;;;;;;;12.95;2.25;;;1.80;99.90;;;;;;5089759;28;20040;-68
2022/01/06 09:59:15;;;;;;;9.02;1.48;;;1.80;99.90;;;;;;5089384;28;20507;-72
2022/01/06 10:01:43;;;;;;;4.72;1.38;;;1.90;99.90;;;;;;5089177;28;20044;-68
2022/01/06 10:04:27;;;;;;;12.05;2.28;;;1.90;99.90;;;;;;5087686;28;20048;-67
2022/01/06 10:07:07;;;;;;;11.10;1.65;;;2.00;99.90;;;;;;5068361;28;20386;-67
2022/01/06 10:09:37;;;;;;;3.95;1.33;;;2.00;99.90;;;;;;5069803;28;20067;-66
2022/01/06 10:12:11;;;;;;;10.27;1.88;;;2.00;99.90;;;;;;5088078;28;20056;-75
2022/01/06 10:14:47;;;;;;;8.75;1.67;;;2.00;99.90;;;;;;5088497;28;20048;-70
2022/01/06 10:17:27;;;;;;;7.38;2.35;;;2.10;99.90;;;;;;5086502;28;20059;-66
2022/01/06 10:19:55;;;;;;;7.22;1.80;;;2.10;99.90;;;;;;5070220;28;20036;-66
2022/01/06 10:22:23;;;;;;;4.57;1.55;;;2.10;99.90;;;;;;5088062;28;20044;-67
2022/01/06 10:24:51;;;;;;;5.90;1.63;;;2.10;99.90;;;;;;5086968;28;20044;-66
2022/01/06 10:27:23;;;;;;;9.15;2.05;;;2.10;99.90;;;;;;5087937;28;20040;-70
2022/01/06 10:29:52;;;;;;;10.07;1.85;;;2.10;99.90;;;;;;5088288;28;20047;-69
2022/01/06 10:32:27;;;;;;;9.18;1.55;;;2.20;99.90;;;;;;5090800;28;20051;-69
2022/01/06 10:34:56;;;;;;;9.00;1.55;;;2.20;99.90;;;;;;5102361;28;20040;-66
2022/01/06 10:37:26;;;;;;;4.05;1.60;;;2.20;99.90;;;;;;5086738;28;20055;-66
2022/01/06 10:40:27;;;;;;;13.30;1.67;;;2.30;99.90;;;;;;5088076;28;20048;-68
2022/01/06 10:43:05;;;;;;;4.20;0.93;;;2.30;99.90;;;;;;5086311;28;20146;-68
2022/01/06 10:45:34;;;;;;;10.80;1.83;;;2.30;99.90;;;;;;5087815;28;20044;-69
2022/01/06 10:48:03;;;;;;;8.15;1.80;;;2.40;99.90;;;;;;5087819;28;20414;-68
2022/01/06 10:50:41;;;;;;;3.20;1.58;;;2.30;99.90;;;;;;5066993;28;20051;-72
2022/01/06 10:53:11;;;;;;;8.25;1.58;;;2.20;99.90;;;;;;5077530;28;20063;-66
2022/01/06 10:55:46;;;;;;;4.68;1.75;;;2.20;99.90;;;;;;5091861;28;20357;-68
2022/01/06 10:58:25;;;;;;;12.52;2.60;;;2.10;99.90;;;;;;5091704;28;20062;-68
2022/01/06 11:01:01;;;;;;;8.07;2.07;;;2.00;99.90;;;;;;5090227;28;20430;-67
2022/01/06 11:03:33;;;;;;;4.85;2.38;;;1.90;99.90;;;;;;5091609;28;20394;-68
2022/01/06 11:06:03;;;;;;;8.95;2.90;;;1.80;99.90;;;;;;5086412;28;20040;-69
2022/01/06 11:08:42;;;;;;;12.20;2.75;;;1.80;99.90;;;;;;5081771;28;20070;-69
2022/01/06 11:13:41;;;;;;;11.90;3.30;;;1.70;99.90;;;;;;5091240;28;20051;-67
2022/01/06 11:16:12;;;;;;;9.68;3.47;;;1.60;99.90;;;;;;5090201;28;20036;-69
2022/01/06 11:18:43;;;;;;;7.32;2.70;;;1.60;99.90;;;;;;5090175;28;20055;-70
2022/01/06 11:21:13;;;;;;;13.70;4.22;;;1.60;99.90;;;;;;5078838;28;20503;-72
2022/01/06 11:23:41;;;;;;;34.10;8.63;;;1.50;99.90;;;;;;5084656;28;20052;-72
2022/01/06 11:26:18;;;;;;;16.48;4.07;;;1.50;99.90;;;;;;5089869;28;20032;-70
2022/01/06 11:28:59;;;;;;;6.18;2.47;;;1.40;99.90;;;;;;5091309;28;20395;-71
2022/01/06 11:31:35;;;;;;;15.77;2.95;;;1.40;99.90;;;;;;5090961;28;20495;-72
2022/01/06 11:34:17;;;;;;;14.85;3.33;;;1.40;99.90;;;;;;5090454;28;20051;-70
2022/01/06 11:36:49;;;;;;;10.32;2.55;;;1.30;99.90;;;;;;5085602;28;20524;-70
2022/01/06 11:39:29;;;;;;;8.02;2.60;;;1.30;99.90;;;;;;5087796;28;20512;-70
2022/01/06 11:41:58;;;;;;;;;;;1.30;99.90;;;;;;5091474;28;20044;-71
2022/01/06 11:44:32;;;;;;;15.13;3.75;;;1.30;99.90;;;;;;5090343;28;20113;-70
2022/01/06 11:47:03;;;;;;;9.25;2.78;;;1.20;99.90;;;;;;5090620;28;20043;-72
2022/01/06 11:49:39;;;;;;;8.18;3.13;;;1.20;99.90;;;;;;5089396;28;20044;-68
2022/01/06 11:52:11;;;;;;;12.18;3.65;;;1.20;99.90;;;;;;5089001;28;20524;-67
2022/01/06 11:54:49;;;;;;;9.27;2.63;;;1.20;99.90;;;;;;5090674;28;20043;-67
2022/01/06 11:57:36;;;;;;;13.57;3.10;;;1.20;99.90;;;;;;5088794;28;20051;-66
2022/01/06 12:00:15;;;;;;;11.35;4.18;;;1.20;99.90;;;;;;5090540;28;20044;-67
2022/01/06 12:02:45;;;;;;;10.10;3.23;;;1.20;99.90;;;;;;5090179;28;20048;-66
2022/01/06 12:05:13;;;;;;;14.43;2.55;;;1.20;99.90;;;;;;5086944;28;20063;-66
2022/01/06 12:07:51;;;;;;;8.20;2.55;;;1.20;99.90;;;;;;5073526;28;20051;-67
2022/01/06 12:10:20;;;;;;;9.82;2.55;;;1.20;99.90;;;;;;5088780;28;20372;-66
2022/01/06 12:12:50;;;;;;;9.18;2.67;;;1.30;99.90;;;;;;5082242;28;20079;-68
2022/01/06 12:15:19;;;;;;;10.25;3.15;;;1.30;99.90;;;;;;5076270;28;20059;-66
2022/01/06 12:17:52;;;;;;;7.57;2.60;;;1.30;99.90;;;;;;5084770;28;20036;-66
2022/01/06 12:20:26;;;;;;;8.02;2.03;;;1.30;99.90;;;;;;5086917;28;20036;-66
2022/01/06 12:22:54;;;;;;;7.68;2.28;;;1.30;99.90;;;;;;5072261;28;20048;-65
2022/01/06 12:25:25;;;;;;;7.05;2.22;;;1.40;99.90;;;;;;5068055;28;20408;-66
2022/01/06 12:27:55;;;;;;;4.20;1.70;;;1.40;99.90;;;;;;5073500;28;20040;-68
2022/01/06 12:30:26;;;;;;;7.50;2.15;;;1.40;99.90;;;;;;5090453;28;20890;-70
2022/01/06 12:33:02;;;;;;;5.28;2.08;;;1.50;99.90;;;;;;5092719;28;20044;-66
2022/01/06 12:35:41;;;;;;;6.38;2.08;;;1.50;99.90;;;;;;5093845;28;20055;-65
2022/01/06 12:38:10;;;;;;;9.77;1.85;;;1.50;99.90;;;;;;5076769;28;20048;-65
2022/01/06 12:40:42;;;;;;;6.07;2.08;;;1.50;99.90;;;;;;5089755;28;20051;-66
2022/01/06 12:43:32;;;;;;;7.28;1.88;;;1.60;99.90;;;;;;5089198;28;20051;-64
2022/01/06 12:46:13;;;;;;;6.07;1.90;;;1.60;99.90;;;;;;5088264;28;20067;-65
2022/01/06 12:48:46;;;;;;;7.18;1.70;;;1.60;99.90;;;;;;5087926;28;20051;-64
2022/01/06 12:51:17;;;;;;;9.15;2.80;;;1.70;99.90;;;;;;5084506;28;20523;-73
2022/01/06 12:53:48;;;;;;;10.27;1.92;;;1.70;99.90;;;;;;5083166;28;20058;-64
2022/01/06 12:56:26;;;;;;;3.38;2.00;;;1.70;99.90;;;;;;5089051;28;20056;-65
2022/01/06 12:58:55;;;;;;;5.80;2.05;;;1.80;99.90;;;;;;5087397;28;20048;-69
2022/01/06 13:01:23;;;;;;;10.07;3.47;;;1.80;99.90;;;;;;5089316;28;20052;-63
2022/01/06 13:03:54;;;;;;;10.82;1.90;;;1.90;99.90;;;;;;5089089;28;20051;-66
2022/01/06 13:06:23;;;;;;;4.85;2.28;;;1.90;99.90;;;;;;5081792;28;20037;-66